Time;durP1;ratioP1;P1;durP2;ratioP2;P2;SDS_P1;SDS_P2;PMS_P1;PMS_P2;Temp;Humidity;BMP_temperature;BMP_pressure;BME280_temperature;BME280_humidity;BME280_pressure;Samples;Min_cycle;Max_cycle;Signal;HPM_P1;HPM_P2
2021/03/26 00:00:02;;;;;;;;;;;23.60;37.50;;;;;;1585138;73;783;-58
2021/03/26 00:02:03;;;;;;;;;;;23.60;37.60;;;;;;1583212;73;1166;-58
2021/03/26 00:04:06;;;;;;;;;;;23.60;37.50;;;;;;1584290;73;773;-57
2021/03/26 00:06:09;;;;;;;;;;;23.60;37.40;;;;;;1597993;73;747;-58
2021/03/26 00:08:11;;;;;;;;;;;23.60;37.50;;;;;;1588035;73;1649;-56
2021/03/26 00:10:14;;;;;;;;;;;23.60;37.50;;;;;;1591760;73;795;-58
2021/03/26 00:12:15;;;;;;;;;;;23.60;37.40;;;;;;1590126;73;1941;-59
2021/03/26 00:14:17;;;;;;;;;;;23.60;37.40;;;;;;1585861;73;746;-58
2021/03/26 00:16:20;;;;;;;;;;;23.60;37.40;;;;;;1591111;73;778;-56
2021/03/26 00:18:21;;;;;;;;;;;23.60;37.40;;;;;;1584721;73;750;-56
2021/03/26 00:20:23;;;;;;;;;;;23.60;37.30;;;;;;1609216;73;763;-55
2021/03/26 00:22:25;;;;;;;;;;;23.60;37.30;;;;;;1576004;73;1168;-59
2021/03/26 00:24:27;;;;;;;;;;;23.60;37.20;;;;;;1596385;73;746;-58
2021/03/26 00:26:29;;;;;;;;;;;23.50;37.20;;;;;;1572075;73;788;-58
2021/03/26 00:28:31;;;;;;;;;;;23.60;37.20;;;;;;1583615;73;774;-58
2021/03/26 00:30:33;;;;;;;;;;;23.60;37.60;;;;;;1594696;73;744;-58
2021/03/26 00:32:35;;;;;;;;;;;23.60;37.60;;;;;;1576005;73;1947;-58
2021/03/26 00:34:37;;;;;;;;;;;23.60;37.60;;;;;;1582942;73;759;-58
2021/03/26 00:36:39;;;;;;;;;;;23.60;37.60;;;;;;1581740;73;771;-57
2021/03/26 00:38:41;;;;;;;;;;;23.60;37.60;;;;;;1580978;73;675;-58
2021/03/26 00:40:43;;;;;;;;;;;23.60;37.50;;;;;;1570728;73;772;-57
2021/03/26 00:42:45;;;;;;;;;;;23.60;37.50;;;;;;1579806;73;1164;-56
2021/03/26 00:44:47;;;;;;;;;;;23.60;37.50;;;;;;1581871;73;788;-59
2021/03/26 00:46:49;;;;;;;;;;;23.60;37.80;;;;;;1590821;73;759;-56
2021/03/26 00:48:50;;;;;;;;;;;23.60;37.90;;;;;;1572059;73;868;-59
2021/03/26 00:50:56;;;;;;;;;;;23.60;38.00;;;;;;1580846;73;755;-59
2021/03/26 00:52:59;;;;;;;;;;;23.70;38.10;;;;;;1589086;73;1930;-58
2021/03/26 00:55:01;;;;;;;;;;;23.60;38.00;;;;;;1590292;73;622;-58
2021/03/26 00:57:02;;;;;;;;;;;23.60;38.00;;;;;;1570523;73;760;-58
2021/03/26 00:59:04;;;;;;;;;;;23.60;38.00;;;;;;1586297;73;659;-58
2021/03/26 01:01:06;;;;;;;;;;;23.60;38.10;;;;;;1594412;73;778;-58
2021/03/26 01:03:08;;;;;;;;;;;23.60;38.00;;;;;;1581398;73;1112;-56
2021/03/26 01:05:11;;;;;;;;;;;23.60;38.00;;;;;;1571088;73;802;-55
2021/03/26 01:07:13;;;;;;;;;;;23.60;38.00;;;;;;1571431;73;792;-59
2021/03/26 01:09:15;;;;;;;;;;;23.60;37.90;;;;;;1574272;73;805;-55
2021/03/26 01:11:18;;;;;;;;;;;23.60;38.00;;;;;;1577743;73;756;-56
2021/03/26 01:13:20;;;;;;;;;;;23.60;38.20;;;;;;1593171;73;1941;-59
2021/03/26 01:15:22;;;;;;;;;;;23.60;38.20;;;;;;1579810;73;805;-58
2021/03/26 01:17:24;;;;;;;;;;;23.60;38.20;;;;;;1586789;73;815;-58
2021/03/26 01:19:27;;;;;;;;;;;23.60;38.10;;;;;;1587045;73;741;-57
2021/03/26 01:21:29;;;;;;;;;;;23.60;38.10;;;;;;1577079;73;742;-58
2021/03/26 01:23:31;;;;;;;;;;;23.60;38.00;;;;;;1587289;73;1055;-54
2021/03/26 01:25:38;;;;;;;;;;;23.60;38.00;;;;;;1584398;73;801;-58
2021/03/26 01:27:39;;;;;;;;;;;23.70;38.10;;;;;;1580610;73;1677;-56
2021/03/26 01:29:41;;;;;;;;;;;23.60;37.90;;;;;;1583463;73;754;-57
2021/03/26 01:31:43;;;;;;;;;;;23.60;37.90;;;;;;1588417;73;1121;-57
2021/03/26 01:33:45;;;;;;;;;;;23.60;37.90;;;;;;1584191;73;1950;-56
2021/03/26 01:35:47;;;;;;;;;;;23.60;37.90;;;;;;1594480;73;679;-57
2021/03/26 01:37:49;;;;;;;;;;;23.60;38.00;;;;;;1591445;73;731;-57
2021/03/26 01:39:51;;;;;;;;;;;23.60;38.00;;;;;;1582131;73;786;-59
2021/03/26 01:41:53;;;;;;;;;;;23.60;37.90;;;;;;1589076;73;1154;-57
2021/03/26 01:43:55;;;;;;;;;;;23.60;37.90;;;;;;1579791;73;749;-57
2021/03/26 01:45:57;;;;;;;;;;;23.60;38.00;;;;;;1587489;73;762;-56
2021/03/26 01:47:58;;;;;;;;;;;23.60;38.00;;;;;;1574473;73;756;-58
2021/03/26 01:50:00;;;;;;;;;;;23.60;38.00;;;;;;1588592;73;755;-58
2021/03/26 01:52:02;;;;;;;;;;;23.60;38.00;;;;;;1587272;73;2008;-57
2021/03/26 01:54:05;;;;;;;;;;;23.60;37.80;;;;;;1580368;73;642;-58
2021/03/26 01:56:07;;;;;;;;;;;23.60;37.90;;;;;;1582991;73;739;-58
2021/03/26 01:58:09;;;;;;;;;;;23.60;37.90;;;;;;1598425;73;737;-58
2021/03/26 02:00:12;;;;;;;;;;;23.60;37.80;;;;;;1570233;73;769;-58
2021/03/26 02:02:17;;;;;;;;;;;23.60;37.80;;;;;;1588778;73;1175;-55
2021/03/26 02:04:23;;;;;;;;;;;23.60;37.90;;;;;;1595411;73;1769;-57
2021/03/26 02:06:26;;;;;;;;;;;23.60;37.90;;;;;;1583208;73;1475;-58
2021/03/26 02:08:32;;;;;;;;;;;23.60;38.20;;;;;;1571843;73;753;-57
2021/03/26 02:10:34;;;;;;;;;;;23.60;38.40;;;;;;1581023;73;792;-55
2021/03/26 02:12:36;;;;;;;;;;;23.60;38.20;;;;;;1586163;73;1948;-59
2021/03/26 02:14:39;;;;;;;;;;;23.60;38.10;;;;;;1577999;73;781;-58
2021/03/26 02:16:41;;;;;;;;;;;23.60;38.10;;;;;;1590906;73;1229;-58
2021/03/26 02:18:43;;;;;;;;;;;23.60;38.10;;;;;;1579397;73;802;-58
2021/03/26 02:20:55;;;;;;;;;;;23.60;38.10;;;;;;1570400;73;751;-56
2021/03/26 02:22:57;;;;;;;;;;;23.60;37.80;;;;;;1558827;74;1150;-55
2021/03/26 02:24:59;;;;;;;;;;;23.60;37.80;;;;;;1575646;73;778;-57
2021/03/26 02:27:05;;;;;;;;;;;23.60;37.90;;;;;;1595271;73;756;-59
2021/03/26 02:29:22;;;;;;;;;;;23.60;37.80;;;;;;1580715;73;1080;-58
2021/03/26 02:31:11;;;;;;;;;;;23.60;37.80;;;;;;1570924;73;1590;-56
2021/03/26 02:33:13;;;;;;;;;;;23.60;37.80;;;;;;1571180;73;1941;-58
2021/03/26 02:35:16;;;;;;;;;;;23.60;37.80;;;;;;1592042;73;813;-58
2021/03/26 02:37:18;;;;;;;;;;;23.50;37.80;;;;;;1575742;73;804;-57
2021/03/26 02:39:22;;;;;;;;;;;23.60;37.70;;;;;;1575377;73;1054;-57
2021/03/26 02:41:25;;;;;;;;;;;23.60;37.70;;;;;;1581691;73;791;-57
2021/03/26 02:43:28;;;;;;;;;;;23.60;37.80;;;;;;1579759;73;1123;-58
2021/03/26 02:45:32;;;;;;;;;;;23.60;37.60;;;;;;1569179;73;749;-56
2021/03/26 02:47:47;;;;;;;;;;;23.50;37.50;;;;;;1576843;73;809;-55
2021/03/26 02:49:51;;;;;;;;;;;23.50;37.30;;;;;;1575378;73;982;-55
2021/03/26 02:52:00;;;;;;;;;;;23.50;37.60;;;;;;1572700;73;1188;-54
2021/03/26 02:54:16;;;;;;;;;;;23.60;37.30;;;;;;1581199;73;1933;-58
2021/03/26 02:56:18;;;;;;;;;;;23.50;37.60;;;;;;1499554;73;1045;-58
2021/03/26 02:58:22;;;;;;;;;;;23.60;37.60;;;;;;1576748;73;738;-59
2021/03/26 03:00:26;;;;;;;;;;;23.50;37.30;;;;;;1578317;73;667;-59
2021/03/26 03:02:28;;;;;;;;;;;23.60;37.30;;;;;;1545069;74;1188;-58
2021/03/26 03:04:33;;;;;;;;;;;23.50;37.40;;;;;;1572117;73;794;-58
2021/03/26 03:06:37;;;;;;;;;;;23.50;37.30;;;;;;1577779;73;836;-54
2021/03/26 03:08:38;;;;;;;;;;;23.60;37.30;;;;;;1578979;73;765;-59
2021/03/26 03:10:44;;;;;;;;;;;23.50;37.30;;;;;;1573086;73;752;-59
2021/03/26 03:12:46;;;;;;;;;;;23.50;37.40;;;;;;1582864;73;1954;-55
2021/03/26 03:14:52;;;;;;;;;;;23.60;37.50;;;;;;1581123;73;765;-60
2021/03/26 03:17:01;;;;;;;;;;;23.50;37.30;;;;;;1574108;73;754;-58
2021/03/26 03:19:20;;;;;;;;;;;23.60;37.20;;;;;;1580871;73;653;-58
2021/03/26 03:21:23;;;;;;;;;;;23.50;37.20;;;;;;1581636;73;1171;-58
2021/03/26 03:23:27;;;;;;;;;;;23.50;37.20;;;;;;1573197;73;1131;-57
2021/03/26 03:25:28;;;;;;;;;;;23.50;37.30;;;;;;1583339;73;774;-55
2021/03/26 03:27:41;;;;;;;;;;;23.50;37.30;;;;;;1580206;73;802;-58
2021/03/26 03:30:01;;;;;;;;;;;23.50;37.40;;;;;;1584500;73;782;-53
2021/03/26 03:32:04;;;;;;;;;;;23.50;37.50;;;;;;1583443;73;1163;-59
2021/03/26 03:34:10;;;;;;;;;;;23.50;37.50;;;;;;1575596;73;1934;-58
2021/03/26 03:36:19;;;;;;;;;;;23.50;37.50;;;;;;1583889;73;799;-55
2021/03/26 03:38:39;;;;;;;;;;;23.50;37.40;;;;;;1577839;73;632;-58
2021/03/26 03:40:42;;;;;;;;;;;23.50;37.50;;;;;;1580747;73;751;-58
2021/03/26 03:42:55;;;;;;;;;;;23.40;37.30;;;;;;1571795;73;1184;-58
2021/03/26 03:44:58;;;;;;;;;;;23.50;37.60;;;;;;1579847;73;1895;-58
2021/03/26 03:47:02;;;;;;;;;;;23.40;37.60;;;;;;1588705;73;763;-59
2021/03/26 03:49:05;;;;;;;;;;;23.40;37.60;;;;;;1581860;73;745;-57
2021/03/26 03:51:12;;;;;;;;;;;23.30;37.80;;;;;;1570357;73;748;-59
2021/03/26 03:53:15;;;;;;;;;;;23.30;37.90;;;;;;1573123;73;1950;-59
2021/03/26 03:55:19;;;;;;;;;;;23.20;38.00;;;;;;1577644;73;993;-58
2021/03/26 03:57:22;;;;;;;;;;;23.20;38.20;;;;;;1588285;73;996;-57
2021/03/26 03:59:26;;;;;;;;;;;23.20;38.10;;;;;;1571896;73;1174;-58
2021/03/26 04:01:32;;;;;;;;;;;23.20;38.10;;;;;;1582643;73;784;-58
2021/03/26 04:03:35;;;;;;;;;;;23.10;38.10;;;;;;1588865;73;1199;-60
2021/03/26 04:05:41;;;;;;;;;;;23.20;38.10;;;;;;1585831;73;1014;-59
2021/03/26 04:07:45;;;;;;;;;;;23.20;38.20;;;;;;1577119;73;771;-55
2021/03/26 04:09:48;;;;;;;;;;;23.20;38.30;;;;;;1576061;73;966;-59
2021/03/26 04:11:55;;;;;;;;;;;23.10;38.30;;;;;;1575934;73;1614;-60
2021/03/26 04:14:01;;;;;;;;;;;23.20;38.30;;;;;;1577198;73;1947;-60
2021/03/26 04:16:03;;;;;;;;;;;23.20;38.30;;;;;;1574381;73;1016;-59
2021/03/26 04:18:06;;;;;;;;;;;23.20;38.20;;;;;;1573636;73;796;-60
2021/03/26 04:20:16;;;;;;;;;;;23.10;38.30;;;;;;1574553;73;750;-57
2021/03/26 04:22:21;;;;;;;;;;;23.20;38.30;;;;;;1574802;73;1163;-57
2021/03/26 04:24:34;;;;;;;;;;;23.20;38.30;;;;;;1575269;73;644;-59
2021/03/26 04:26:37;;;;;;;;;;;23.20;38.10;;;;;;1573918;73;1230;-59
2021/03/26 04:28:39;;;;;;;;;;;23.20;38.40;;;;;;1577935;73;813;-58
2021/03/26 04:30:46;;;;;;;;;;;23.20;38.50;;;;;;1589438;73;618;-58
2021/03/26 04:32:48;;;;;;;;;;;23.20;38.40;;;;;;1580478;73;1390;-59
2021/03/26 04:34:50;;;;;;;;;;;23.20;38.30;;;;;;1579825;73;792;-59
2021/03/26 04:37:05;;;;;;;;;;;23.20;38.20;;;;;;1579562;73;798;-59
2021/03/26 04:39:09;;;;;;;;;;;23.20;38.20;;;;;;1575662;73;761;-59
2021/03/26 04:41:13;;;;;;;;;;;23.20;38.20;;;;;;1579349;73;803;-55
2021/03/26 04:43:25;;;;;;;;;;;23.30;38.40;;;;;;1563381;73;1277;-59
2021/03/26 04:45:29;;;;;;;;;;;23.30;38.30;;;;;;1584871;73;729;-56
2021/03/26 04:47:35;;;;;;;;;;;23.30;38.20;;;;;;1574366;73;793;-59
2021/03/26 04:49:38;;;;;;;;;;;23.30;38.20;;;;;;1570524;73;1058;-58
2021/03/26 04:51:42;;;;;;;;;;;23.20;38.10;;;;;;1570625;73;1465;-59
2021/03/26 04:54:00;;;;;;;;;;;23.30;38.20;;;;;;1589723;73;1933;-57
2021/03/26 04:56:03;;;;;;;;;;;23.30;38.10;;;;;;1583534;73;697;-59
2021/03/26 04:58:06;;;;;;;;;;;23.40;38.00;;;;;;1569388;73;642;-58
2021/03/26 05:00:10;;;;;;;;;;;23.30;38.00;;;;;;1576321;73;806;-56
2021/03/26 05:02:12;;;;;;;;;;;23.40;38.10;;;;;;1567535;73;1242;-59
2021/03/26 05:04:25;;;;;;;;;;;23.40;38.10;;;;;;1582609;73;784;-57
2021/03/26 05:06:30;;;;;;;;;;;23.40;37.90;;;;;;1586374;73;755;-57
2021/03/26 05:08:32;;;;;;;;;;;23.30;37.90;;;;;;1575937;73;811;-57
2021/03/26 05:10:34;;;;;;;;;;;23.40;37.90;;;;;;1575989;73;787;-58
2021/03/26 05:12:36;;;;;;;;;;;23.30;38.00;;;;;;1583167;73;1216;-59
2021/03/26 05:14:40;;;;;;;;;;;23.40;38.00;;;;;;1567026;73;1938;-59
2021/03/26 05:16:46;;;;;;;;;;;23.30;37.90;;;;;;1567426;73;749;-59
2021/03/26 05:18:55;;;;;;;;;;;23.30;38.00;;;;;;1570495;73;762;-58
2021/03/26 05:21:05;;;;;;;;;;;23.40;37.90;;;;;;1565509;73;754;-56
2021/03/26 05:23:11;;;;;;;;;;;23.40;37.80;;;;;;1564681;73;1169;-59
2021/03/26 05:25:15;;;;;;;;;;;23.40;37.80;;;;;;1566688;73;657;-60
2021/03/26 05:27:17;;;;;;;;;;;23.40;37.90;;;;;;1563893;73;1650;-56
2021/03/26 05:29:19;;;;;;;;;;;23.20;37.80;;;;;;1576933;73;796;-59
2021/03/26 05:31:25;;;;;;;;;;;23.40;37.80;;;;;;1570875;73;765;-56
2021/03/26 05:33:27;;;;;;;;;;;23.40;37.70;;;;;;1565560;73;1924;-58
2021/03/26 05:35:31;;;;;;;;;;;23.30;37.70;;;;;;1565097;73;765;-58
2021/03/26 05:37:34;;;;;;;;;;;23.40;37.80;;;;;;1576303;73;1017;-57
2021/03/26 05:39:36;;;;;;;;;;;23.40;37.70;;;;;;1580016;73;784;-56
2021/03/26 05:41:40;;;;;;;;;;;23.40;37.70;;;;;;1568034;73;1172;-59
2021/03/26 05:43:43;;;;;;;;;;;23.40;37.80;;;;;;1569846;73;764;-60
2021/03/26 05:45:47;;;;;;;;;;;23.40;37.90;;;;;;1568364;73;787;-59
2021/03/26 05:47:59;;;;;;;;;;;23.40;37.70;;;;;;1568247;73;612;-59
2021/03/26 05:50:11;;;;;;;;;;;23.40;37.60;;;;;;1577495;73;785;-54
2021/03/26 05:52:18;;;;;;;;;;;23.40;37.50;;;;;;1605428;73;1150;-58
2021/03/26 05:54:21;;;;;;;;;;;23.50;37.70;;;;;;1570444;73;1937;-58
2021/03/26 05:56:34;;;;;;;;;;;23.50;37.80;;;;;;1583699;73;609;-56
2021/03/26 05:58:46;;;;;;;;;;;23.50;37.90;;;;;;1578660;75;976;-57
2021/03/26 06:00:58;;;;;;;;;;;23.40;37.70;;;;;;1571121;73;889;-58
2021/03/26 06:03:02;;;;;;;;;;;23.40;37.80;;;;;;1513260;76;1256;-58
2021/03/26 06:05:20;;;;;;;;;;;23.50;38.00;;;;;;1566105;73;860;-58
2021/03/26 06:07:40;;;;;;;;;;;23.50;37.90;;;;;;1566392;73;632;-54
2021/03/26 06:09:58;;;;;;;;;;;23.40;37.80;;;;;;1569174;73;732;-59
2021/03/26 06:12:05;;;;;;;;;;;23.40;37.60;;;;;;1578158;73;1131;-54
2021/03/26 06:14:08;;;;;;;;;;;23.50;37.80;;;;;;1581650;73;1937;-58
2021/03/26 06:16:18;;;;;;;;;;;23.50;37.90;;;;;;1567934;73;753;-58
2021/03/26 06:18:27;;;;;;;;;;;23.50;37.90;;;;;;1573652;73;1593;-60
2021/03/26 06:20:37;;;;;;;;;;;23.50;37.80;;;;;;1566551;73;730;-58
2021/03/26 06:22:46;;;;;;;;;;;23.50;37.80;;;;;;1565518;73;1168;-59
2021/03/26 06:24:56;;;;;;;;;;;23.50;37.90;;;;;;1577797;73;1117;-58
2021/03/26 06:27:05;;;;;;;;;;;23.50;37.80;;;;;;1574296;73;757;-55
2021/03/26 06:29:27;;;;;;;;;;;23.50;37.70;;;;;;1574982;73;746;-54
2021/03/26 06:31:39;;;;;;;;;;;23.50;37.70;;;;;;1567050;73;1037;-58
2021/03/26 06:33:46;;;;;;;;;;;23.50;37.60;;;;;;1571634;73;1946;-57
2021/03/26 06:35:52;;;;;;;;;;;23.60;37.40;;;;;;1588306;73;1639;-58
2021/03/26 06:38:01;;;;;;;;;;;23.50;37.40;;;;;;1581664;73;670;-55
2021/03/26 06:40:11;;;;;;;;;;;23.50;36.80;;;;;;1583568;73;725;-57
2021/03/26 06:42:14;;;;;;;;;;;23.60;36.80;;;;;;1576320;73;1176;-56
2021/03/26 06:44:27;;;;;;;;;;;23.50;36.90;;;;;;1577082;73;815;-56
2021/03/26 06:46:33;;;;;;;;;;;23.60;36.80;;;;;;1577346;73;742;-57
2021/03/26 06:48:52;;;;;;;;;;;23.60;36.60;;;;;;1574594;73;770;-58
2021/03/26 06:50:56;;;;;;;;;;;23.60;36.60;;;;;;1596588;73;766;-58
2021/03/26 06:53:05;;;;;;;;;;;23.60;36.60;;;;;;1590710;73;1444;-56
2021/03/26 06:55:17;;;;;;;;;;;23.50;36.50;;;;;;1591434;73;1936;-59
2021/03/26 06:57:20;;;;;;;;;;;23.60;36.20;;;;;;1573580;73;675;-56
2021/03/26 06:59:24;;;;;;;;;;;23.60;36.20;;;;;;1583318;73;1486;-58
2021/03/26 07:01:42;;;;;;;;;;;23.50;36.00;;;;;;1591644;73;739;-58
2021/03/26 07:04:02;;;;;;;;;;;23.50;36.00;;;;;;1589786;73;1346;-59
2021/03/26 07:06:08;;;;;;;;;;;23.60;35.60;;;;;;1571347;73;800;-58
2021/03/26 07:08:20;;;;;;;;;;;23.60;35.50;;;;;;1572788;73;1086;-59
2021/03/26 07:10:40;;;;;;;;;;;23.60;35.40;;;;;;1556657;73;1024;-58
2021/03/26 07:13:00;;;;;;;;;;;23.60;35.30;;;;;;1587323;73;1165;-57
2021/03/26 07:15:04;;;;;;;;;;;23.20;35.10;;;;;;1579056;73;1928;-56
2021/03/26 07:17:26;;;;;;;;;;;23.50;35.20;;;;;;1610266;73;753;-56
2021/03/26 07:19:38;;;;;;;;;;;23.60;35.00;;;;;;1580916;73;737;-56
2021/03/26 07:21:42;;;;;;;;;;;23.50;34.90;;;;;;1568596;73;1154;-58
2021/03/26 07:24:03;;;;;;;;;;;23.60;34.80;;;;;;1577022;73;1611;-58
2021/03/26 07:26:23;;;;;;;;;;;23.50;34.60;;;;;;1590221;73;1505;-55
2021/03/26 07:28:35;;;;;;;;;;;23.50;34.60;;;;;;1587672;73;740;-57
2021/03/26 07:30:40;;;;;;;;;;;23.40;34.50;;;;;;1579566;73;1387;-58
2021/03/26 07:32:46;;;;;;;;;;;23.40;34.50;;;;;;1568047;73;1098;-55
2021/03/26 07:35:06;;;;;;;;;;;23.50;34.60;;;;;;1570453;73;1938;-58
2021/03/26 07:37:12;;;;;;;;;;;23.40;34.40;;;;;;1571732;73;740;-58
2021/03/26 07:39:19;;;;;;;;;;;23.40;34.40;;;;;;1581917;73;796;-58
2021/03/26 07:41:31;;;;;;;;;;;23.40;34.40;;;;;;1570125;73;884;-57
2021/03/26 07:43:51;;;;;;;;;;;23.40;34.30;;;;;;1576496;73;1091;-58
2021/03/26 07:46:00;;;;;;;;;;;23.50;34.40;;;;;;1572368;73;803;-58
2021/03/26 07:48:04;;;;;;;;;;;23.40;34.40;;;;;;1579073;73;1577;-56
2021/03/26 07:50:23;;;;;;;;;;;23.40;34.20;;;;;;1565599;73;1772;-56
2021/03/26 07:52:35;;;;;;;;;;;23.60;34.00;;;;;;1568726;73;1164;-56
2021/03/26 07:54:41;;;;;;;;;;;23.90;33.20;;;;;;1584066;73;1941;-55
2021/03/26 07:56:55;;;;;;;;;;;24.00;32.50;;;;;;1575317;73;727;-57
2021/03/26 07:58:58;;;;;;;;;;;24.10;31.70;;;;;;1573122;73;679;-57
2021/03/26 08:01:01;;;;;;;;;;;24.20;31.00;;;;;;1571271;73;1518;-58
2021/03/26 08:03:14;;;;;;;;;;;24.30;30.30;;;;;;1585228;73;1240;-57
2021/03/26 08:05:18;;;;;;;;;;;24.30;30.20;;;;;;1567556;73;749;-58
2021/03/26 08:07:30;;;;;;;;;;;24.40;29.50;;;;;;1584645;73;741;-55
2021/03/26 08:09:45;;;;;;;;;;;24.40;29.30;;;;;;1584939;73;1505;-58
2021/03/26 08:11:56;;;;;;;;;;;24.50;29.00;;;;;;1585017;73;1151;-58
2021/03/26 08:14:03;;;;;;;;;;;24.50;28.90;;;;;;1573932;73;1930;-58
2021/03/26 08:16:25;;;;;;;;;;;24.50;28.60;;;;;;1575136;73;750;-58
2021/03/26 08:18:44;;;;;;;;;;;24.50;28.30;;;;;;1575097;73;1704;-59
2021/03/26 08:20:48;;;;;;;;;;;24.50;28.20;;;;;;1577374;73;747;-56
2021/03/26 08:22:51;;;;;;;;;;;24.50;27.80;;;;;;1583067;73;1536;-58
2021/03/26 08:24:55;;;;;;;;;;;24.60;28.20;;;;;;1587681;73;661;-60
2021/03/26 08:27:15;;;;;;;;;;;24.60;28.10;;;;;;1587287;73;766;-57
2021/03/26 08:29:24;;;;;;;;;;;24.60;27.80;;;;;;1583401;73;737;-58
2021/03/26 08:31:32;;;;;;;;;;;24.60;27.80;;;;;;1580449;73;1594;-58
2021/03/26 08:33:51;;;;;;;;;;;24.70;27.60;;;;;;1589842;73;1113;-58
2021/03/26 08:36:01;;;;;;;;;;;24.60;27.70;;;;;;1580690;73;1928;-55
2021/03/26 08:38:22;;;;;;;;;;;24.70;27.60;;;;;;1578837;73;1109;-59
2021/03/26 08:40:25;;;;;;;;;;;24.70;27.80;;;;;;1589559;73;1654;-58
2021/03/26 08:42:41;;;;;;;;;;;24.70;27.60;;;;;;1599543;73;1174;-58
2021/03/26 08:44:45;;;;;;;;;;;24.70;27.30;;;;;;1585176;73;1181;-58
2021/03/26 08:46:47;;;;;;;;;;;24.70;27.10;;;;;;1581686;73;1087;-58
2021/03/26 08:49:05;;;;;;;;;;;24.60;26.40;;;;;;1575906;73;787;-58
2021/03/26 08:51:20;;;;;;;;;;;24.60;26.70;;;;;;1574182;73;757;-58
2021/03/26 08:53:27;;;;;;;;;;;24.60;27.00;;;;;;1579167;73;1171;-58
2021/03/26 08:55:36;;;;;;;;;;;24.60;26.80;;;;;;1583568;73;1942;-58
2021/03/26 08:57:40;;;;;;;;;;;24.60;26.30;;;;;;1592672;73;751;-59
2021/03/26 08:59:46;;;;;;;;;;;24.60;26.70;;;;;;1598216;73;742;-57
2021/03/26 09:01:56;;;;;;;;;;;24.50;26.10;;;;;;1600006;73;1227;-58
2021/03/26 09:04:05;;;;;;;;;;;24.60;26.30;;;;;;1581728;73;778;-59
2021/03/26 09:06:14;;;;;;;;;;;24.60;26.30;;;;;;1578723;73;1019;-58
2021/03/26 09:08:36;;;;;;;;;;;24.50;26.00;;;;;;1585276;73;752;-59
2021/03/26 09:10:42;;;;;;;;;;;24.60;26.00;;;;;;1597167;73;796;-57
2021/03/26 09:12:54;;;;;;;;;;;24.50;25.60;;;;;;1596306;73;1156;-58
2021/03/26 09:15:13;;;;;;;;;;;24.50;25.20;;;;;;1581640;73;1949;-59
2021/03/26 09:17:22;;;;;;;;;;;24.50;25.70;;;;;;1584621;73;1641;-55
2021/03/26 09:19:26;;;;;;;;;;;24.50;25.70;;;;;;1569728;73;1093;-59
2021/03/26 09:21:29;;;;;;;;;;;24.50;25.60;;;;;;1591942;73;1579;-57
2021/03/26 09:23:42;;;;;;;;;;;24.20;25.80;;;;;;1584098;73;1068;-60
2021/03/26 09:25:47;;;;;;;;;;;24.50;25.90;;;;;;1579547;73;1113;-57
2021/03/26 09:27:52;;;;;;;;;;;24.50;25.80;;;;;;1587336;73;640;-58
2021/03/26 09:30:07;;;;;;;;;;;24.50;25.60;;;;;;1586777;73;766;-58
2021/03/26 09:32:10;;;;;;;;;;;24.50;25.90;;;;;;1544913;75;1174;-58
2021/03/26 09:34:20;;;;;;;;;;;24.50;26.00;;;;;;1589318;73;1557;-59
2021/03/26 09:36:23;;;;;;;;;;;24.50;25.40;;;;;;1578475;73;998;-58
2021/03/26 09:38:27;;;;;;;;;;;24.50;25.70;;;;;;1577876;73;1672;-56
2021/03/26 09:40:37;;;;;;;;;;;24.40;25.90;;;;;;1578112;73;749;-59
2021/03/26 09:42:41;;;;;;;;;;;24.40;25.50;;;;;;1580454;73;1268;-57
2021/03/26 09:44:47;;;;;;;;;;;24.50;26.00;;;;;;1585306;73;815;-60
2021/03/26 09:46:53;;;;;;;;;;;24.40;25.70;;;;;;1579932;73;921;-59
2021/03/26 09:48:57;;;;;;;;;;;24.40;25.20;;;;;;1577883;73;981;-59
2021/03/26 09:51:18;;;;;;;;;;;24.40;25.30;;;;;;1583419;73;1557;-60
2021/03/26 09:53:20;;;;;;;;;;;24.40;25.50;;;;;;1585020;73;1087;-57
2021/03/26 09:55:23;;;;;;;;;;;24.40;25.80;;;;;;1579120;73;1934;-56
2021/03/26 09:57:30;;;;;;;;;;;24.30;24.80;;;;;;1572546;73;791;-59
2021/03/26 09:59:50;;;;;;;;;;;24.40;25.20;;;;;;1579785;73;739;-59
2021/03/26 10:01:53;;;;;;;;;;;24.30;25.90;;;;;;1578511;73;1232;-61
2021/03/26 10:04:02;;;;;;;;;;;24.30;25.70;;;;;;1584448;73;1647;-59
2021/03/26 10:06:09;;;;;;;;;;;24.30;25.30;;;;;;1580813;73;744;-59
2021/03/26 10:08:38;;;;;;;;;;;24.30;25.00;;;;;;1594878;73;768;-59
2021/03/26 10:12:26;;;;;;;;;;;24.30;25.30;;;;;;1576680;73;1154;-57
2021/03/26 10:14:30;;;;;;;;;;;24.40;25.30;;;;;;1587581;73;639;-59
2021/03/26 10:16:36;;;;;;;;;;;24.40;25.20;;;;;;1593813;73;1682;-58
2021/03/26 10:18:40;;;;;;;;;;;24.40;25.70;;;;;;1588965;73;760;-57
2021/03/26 10:20:46;;;;;;;;;;;24.40;25.40;;;;;;1586954;73;1043;-56
2021/03/26 10:22:52;;;;;;;;;;;24.40;25.80;;;;;;1587208;73;1128;-56
2021/03/26 10:24:55;;;;;;;;;;;24.30;25.50;;;;;;1581438;73;800;-58
2021/03/26 10:27:10;;;;;;;;;;;24.30;25.40;;;;;;1575009;73;787;-57
2021/03/26 10:29:17;;;;;;;;;;;24.20;25.10;;;;;;1589270;73;627;-57
2021/03/26 10:31:20;;;;;;;;;;;24.30;25.40;;;;;;1588518;73;719;-57
2021/03/26 10:33:22;;;;;;;;;;;24.30;25.80;;;;;;1577848;73;2067;-58
2021/03/26 10:35:25;;;;;;;;;;;24.30;26.00;;;;;;1592767;73;1929;-58
2021/03/26 10:37:28;;;;;;;;;;;24.30;25.80;;;;;;1599436;73;761;-58
2021/03/26 10:39:50;;;;;;;;;;;24.30;25.60;;;;;;1603812;73;982;-58
2021/03/26 10:41:53;;;;;;;;;;;24.20;26.10;;;;;;1579115;73;1128;-55
2021/03/26 10:43:59;;;;;;;;;;;24.20;25.60;;;;;;1589954;73;721;-57
2021/03/26 10:46:02;;;;;;;;;;;24.20;25.30;;;;;;1581720;73;1032;-55
2021/03/26 10:48:05;;;;;;;;;;;24.00;24.10;;;;;;1580496;73;799;-57
2021/03/26 10:50:15;;;;;;;;;;;23.90;24.40;;;;;;1590083;73;763;-58
2021/03/26 10:52:18;;;;;;;;;;;23.80;24.60;;;;;;1576461;73;1157;-58
2021/03/26 10:54:22;;;;;;;;;;;23.80;24.90;;;;;;1583723;73;1628;-59
2021/03/26 10:56:25;;;;;;;;;;;23.80;24.80;;;;;;1589403;73;1934;-58
2021/03/26 10:58:34;;;;;;;;;;;23.70;25.30;;;;;;1584489;73;1586;-58
2021/03/26 11:00:37;;;;;;;;;;;23.80;25.20;;;;;;1600595;73;704;-60
2021/03/26 11:02:41;;;;;;;;;;;23.70;24.80;;;;;;1586427;73;1342;-58
2021/03/26 11:04:43;;;;;;;;;;;23.80;25.00;;;;;;1583104;73;841;-59
2021/03/26 11:06:46;;;;;;;;;;;23.70;25.10;;;;;;1587533;73;686;-60
2021/03/26 11:08:49;;;;;;;;;;;23.70;25.20;;;;;;1590577;73;740;-59
2021/03/26 11:11:05;;;;;;;;;;;23.70;25.00;;;;;;1576645;73;799;-60
2021/03/26 11:13:12;;;;;;;;;;;23.70;25.00;;;;;;1590834;73;1246;-57
2021/03/26 11:15:24;;;;;;;;;;;23.70;24.70;;;;;;1574172;73;1952;-59
2021/03/26 11:17:30;;;;;;;;;;;23.60;24.50;;;;;;1582754;73;655;-60
2021/03/26 11:19:36;;;;;;;;;;;23.60;24.20;;;;;;1574560;73;780;-59
2021/03/26 11:21:45;;;;;;;;;;;23.60;23.90;;;;;;1577572;73;1194;-60
2021/03/26 11:23:54;;;;;;;;;;;23.40;24.60;;;;;;1586810;73;739;-61
2021/03/26 11:26:07;;;;;;;;;;;23.60;25.50;;;;;;1587610;73;775;-58
2021/03/26 11:28:16;;;;;;;;;;;23.60;25.60;;;;;;1606840;73;1111;-59
2021/03/26 11:30:19;;;;;;;;;;;23.60;26.20;;;;;;1590911;73;756;-60
2021/03/26 11:32:23;;;;;;;;;;;23.70;26.60;;;;;;1585307;73;1148;-60
2021/03/26 11:34:27;;;;;;;;;;;23.80;26.80;;;;;;1592762;73;681;-60
2021/03/26 11:36:36;;;;;;;;;;;23.90;27.10;;;;;;1595613;73;1922;-58
2021/03/26 11:38:38;;;;;;;;;;;24.00;27.30;;;;;;1589886;73;736;-60
2021/03/26 11:40:41;;;;;;;;;;;23.90;27.40;;;;;;1581979;73;759;-60
2021/03/26 11:42:45;;;;;;;;;;;23.90;27.50;;;;;;1586838;73;1237;-59
2021/03/26 11:44:48;;;;;;;;;;;23.90;27.60;;;;;;1600257;73;753;-57
2021/03/26 11:46:51;;;;;;;;;;;24.00;27.70;;;;;;1590179;73;1062;-60
2021/03/26 11:48:56;;;;;;;;;;;24.00;27.80;;;;;;1601426;73;748;-59
2021/03/26 11:51:00;;;;;;;;;;;24.00;27.80;;;;;;1580166;73;704;-60
2021/03/26 11:53:15;;;;;;;;;;;24.00;27.90;;;;;;1586956;73;1296;-58
2021/03/26 11:55:19;;;;;;;;;;;24.00;27.90;;;;;;1546899;73;1929;-61
2021/03/26 11:57:39;;;;;;;;;;;24.00;28.00;;;;;;1589018;73;648;-61
2021/03/26 11:59:52;;;;;;;;;;;24.00;28.00;;;;;;1590909;73;745;-57
2021/03/26 12:02:03;;;;;;;;;;;24.00;28.10;;;;;;1580657;73;1199;-61
2021/03/26 12:04:07;;;;;;;;;;;24.00;28.10;;;;;;1564987;74;793;-55
2021/03/26 12:06:13;;;;;;;;;;;24.00;28.20;;;;;;1588865;73;719;-61
2021/03/26 12:08:20;;;;;;;;;;;24.00;28.30;;;;;;1593987;73;1662;-59
2021/03/26 12:10:29;;;;;;;;;;;24.00;28.40;;;;;;1586307;73;742;-60
2021/03/26 12:12:32;;;;;;;;;;;24.00;28.40;;;;;;1589319;73;1267;-59
2021/03/26 12:14:41;;;;;;;;;;;23.90;28.50;;;;;;1589969;73;782;-59
2021/03/26 12:16:45;;;;;;;;;;;23.90;28.50;;;;;;1594285;73;1945;-61
2021/03/26 12:18:59;;;;;;;;;;;23.90;28.60;;;;;;1560134;75;975;-60
2021/03/26 12:21:06;;;;;;;;;;;23.60;28.40;;;;;;1585717;73;796;-58
2021/03/26 12:23:10;;;;;;;;;;;23.90;28.60;;;;;;1582456;73;1155;-60
2021/03/26 12:25:29;;;;;;;;;;;23.90;28.70;;;;;;1597232;73;1647;-58
2021/03/26 12:27:33;;;;;;;;;;;23.90;28.80;;;;;;1602723;73;789;-58
2021/03/26 12:29:45;;;;;;;;;;;23.90;28.90;;;;;;1587001;73;747;-58
2021/03/26 12:32:05;;;;;;;;;;;23.90;28.90;;;;;;1590112;73;1159;-57
2021/03/26 12:34:08;;;;;;;;;;;23.90;28.90;;;;;;1587630;73;791;-57
2021/03/26 12:36:11;;;;;;;;;;;23.90;29.00;;;;;;1589913;73;1942;-57